sensor_id;sensor_type;location;lat;lon;timestamp;P1;durP1;ratioP1;P2;durP2;ratioP2
68921;SDS011;55959;51.244;5.724;2023-05-21T00:01:51;4.45;;;4.05;;
68921;SDS011;55959;51.244;5.724;2023-05-21T00:04:16;4.15;;;3.80;;
68921;SDS011;55959;51.244;5.724;2023-05-21T00:06:42;4.85;;;4.20;;
68921;SDS011;55959;51.244;5.724;2023-05-21T00:09:08;5.20;;;4.20;;
68921;SDS011;55959;51.244;5.724;2023-05-21T00:11:34;4.57;;;4.22;;
68921;SDS011;55959;51.244;5.724;2023-05-21T00:14:00;4.72;;;4.32;;
68921;SDS011;55959;51.244;5.724;2023-05-21T00:16:27;4.38;;;4.07;;
68921;SDS011;55959;51.244;5.724;2023-05-21T00:18:52;5.10;;;4.60;;
68921;SDS011;55959;51.244;5.724;2023-05-21T00:21:19;5.45;;;4.95;;
68921;SDS011;55959;51.244;5.724;2023-05-21T00:23:50;4.70;;;4.30;;
68921;SDS011;55959;51.244;5.724;2023-05-21T00:26:18;6.05;;;4.70;;
68921;SDS011;55959;51.244;5.724;2023-05-21T00:28:45;5.05;;;4.65;;
68921;SDS011;55959;51.244;5.724;2023-05-21T00:31:11;5.07;;;4.68;;
68921;SDS011;55959;51.244;5.724;2023-05-21T00:33:37;5.90;;;4.63;;
68921;SDS011;55959;51.244;5.724;2023-05-21T00:36:03;5.50;;;5.00;;
68921;SDS011;55959;51.244;5.724;2023-05-21T00:38:30;4.70;;;4.30;;
68921;SDS011;55959;51.244;5.724;2023-05-21T00:40:56;4.88;;;4.38;;
68921;SDS011;55959;51.244;5.724;2023-05-21T00:43:27;6.00;;;4.93;;
68921;SDS011;55959;51.244;5.724;2023-05-21T00:45:53;6.88;;;4.72;;
68921;SDS011;55959;51.244;5.724;2023-05-21T00:48:20;6.50;;;4.97;;
68921;SDS011;55959;51.244;5.724;2023-05-21T00:50:47;4.90;;;4.50;;
68921;SDS011;55959;51.244;5.724;2023-05-21T00:53:13;5.07;;;4.40;;
68921;SDS011;55959;51.244;5.724;2023-05-21T00:55:42;4.88;;;4.38;;
68921;SDS011;55959;51.244;5.724;2023-05-21T00:58:09;4.93;;;4.53;;
68921;SDS011;55959;51.244;5.724;2023-05-21T01:00:35;6.73;;;4.87;;
68921;SDS011;55959;51.244;5.724;2023-05-21T01:03:07;5.60;;;5.10;;
68921;SDS011;55959;51.244;5.724;2023-05-21T01:05:34;5.63;;;5.13;;
68921;SDS011;55959;51.244;5.724;2023-05-21T01:08:00;4.80;;;4.40;;
68921;SDS011;55959;51.244;5.724;2023-05-21T01:10:26;5.07;;;4.33;;
68921;SDS011;55959;51.244;5.724;2023-05-21T01:12:54;6.10;;;5.57;;
68921;SDS011;55959;51.244;5.724;2023-05-21T01:15:22;5.80;;;4.67;;
68921;SDS011;55959;51.244;5.724;2023-05-21T01:17:48;5.60;;;5.00;;
68921;SDS011;55959;51.244;5.724;2023-05-21T01:20:15;5.88;;;5.30;;
68921;SDS011;55959;51.244;5.724;2023-05-21T01:23:01;5.33;;;4.83;;
68921;SDS011;55959;51.244;5.724;2023-05-21T01:25:27;5.60;;;5.10;;
68921;SDS011;55959;51.244;5.724;2023-05-21T01:27:53;5.50;;;5.00;;
68921;SDS011;55959;51.244;5.724;2023-05-21T01:30:19;5.97;;;5.47;;
68921;SDS011;55959;51.244;5.724;2023-05-21T01:32:48;5.63;;;5.13;;
68921;SDS011;55959;51.244;5.724;2023-05-21T01:35:29;6.83;;;6.23;;
68921;SDS011;55959;51.244;5.724;2023-05-21T01:40:46;5.43;;;4.90;;
68921;SDS011;55959;51.244;5.724;2023-05-21T01:43:28;5.83;;;5.23;;
68921;SDS011;55959;51.244;5.724;2023-05-21T01:45:58;6.13;;;5.60;;
68921;SDS011;55959;51.244;5.724;2023-05-21T01:48:26;5.83;;;5.30;;
68921;SDS011;55959;51.244;5.724;2023-05-21T01:50:54;5.67;;;5.27;;
68921;SDS011;55959;51.244;5.724;2023-05-21T01:53:24;5.63;;;5.10;;
68921;SDS011;55959;51.244;5.724;2023-05-21T01:55:50;6.50;;;5.53;;
68921;SDS011;55959;51.244;5.724;2023-05-21T01:58:16;5.60;;;5.10;;
68921;SDS011;55959;51.244;5.724;2023-05-21T02:00:42;5.23;;;4.73;;
68921;SDS011;55959;51.244;5.724;2023-05-21T02:03:10;5.30;;;4.80;;
68921;SDS011;55959;51.244;5.724;2023-05-21T02:05:37;5.17;;;4.67;;
68921;SDS011;55959;51.244;5.724;2023-05-21T02:08:03;5.80;;;5.30;;
68921;SDS011;55959;51.244;5.724;2023-05-21T02:10:29;5.53;;;5.03;;
68921;SDS011;55959;51.244;5.724;2023-05-21T02:12:55;5.83;;;5.23;;
68921;SDS011;55959;51.244;5.724;2023-05-21T02:15:20;5.50;;;5.00;;
68921;SDS011;55959;51.244;5.724;2023-05-21T02:17:49;5.00;;;4.50;;
68921;SDS011;55959;51.244;5.724;2023-05-21T02:20:15;5.10;;;4.70;;
68921;SDS011;55959;51.244;5.724;2023-05-21T02:22:50;5.73;;;5.23;;
68921;SDS011;55959;51.244;5.724;2023-05-21T02:25:17;5.27;;;4.83;;
68921;SDS011;55959;51.244;5.724;2023-05-21T02:27:44;5.73;;;5.20;;
68921;SDS011;55959;51.244;5.724;2023-05-21T02:30:11;4.73;;;4.33;;
68921;SDS011;55959;51.244;5.724;2023-05-21T02:32:39;4.80;;;4.40;;
68921;SDS011;55959;51.244;5.724;2023-05-21T02:35:07;6.00;;;4.67;;
68921;SDS011;55959;51.244;5.724;2023-05-21T02:37:35;4.60;;;4.20;;
68921;SDS011;55959;51.244;5.724;2023-05-21T02:40:02;4.50;;;4.10;;
68921;SDS011;55959;51.244;5.724;2023-05-21T02:42:31;4.50;;;4.10;;
68921;SDS011;55959;51.244;5.724;2023-05-21T02:44:58;4.93;;;4.53;;
68921;SDS011;55959;51.244;5.724;2023-05-21T02:47:23;4.77;;;4.37;;
68921;SDS011;55959;51.244;5.724;2023-05-21T02:49:49;4.70;;;4.20;;
68921;SDS011;55959;51.244;5.724;2023-05-21T02:52:17;5.17;;;4.40;;
68921;SDS011;55959;51.244;5.724;2023-05-21T02:54:43;4.60;;;4.20;;
68921;SDS011;55959;51.244;5.724;2023-05-21T02:57:11;4.90;;;4.40;;
68921;SDS011;55959;51.244;5.724;2023-05-21T02:59:36;4.73;;;4.33;;
68921;SDS011;55959;51.244;5.724;2023-05-21T03:02:02;4.67;;;4.27;;
68921;SDS011;55959;51.244;5.724;2023-05-21T03:04:28;4.87;;;4.13;;
68921;SDS011;55959;51.244;5.724;2023-05-21T03:06:54;5.20;;;4.70;;
68921;SDS011;55959;51.244;5.724;2023-05-21T03:09:21;5.43;;;4.93;;
68921;SDS011;55959;51.244;5.724;2023-05-21T03:11:47;4.10;;;3.67;;
68921;SDS011;55959;51.244;5.724;2023-05-21T03:14:13;4.80;;;4.40;;
68921;SDS011;55959;51.244;5.724;2023-05-21T03:16:40;4.50;;;4.10;;
68921;SDS011;55959;51.244;5.724;2023-05-21T03:19:07;4.47;;;4.07;;
68921;SDS011;55959;51.244;5.724;2023-05-21T03:21:36;4.60;;;4.20;;
68921;SDS011;55959;51.244;5.724;2023-05-21T03:24:02;5.27;;;4.50;;
68921;SDS011;55959;51.244;5.724;2023-05-21T03:26:31;5.10;;;4.30;;
68921;SDS011;55959;51.244;5.724;2023-05-21T03:28:57;4.33;;;4.03;;
68921;SDS011;55959;51.244;5.724;2023-05-21T03:31:23;5.03;;;4.53;;
68921;SDS011;55959;51.244;5.724;2023-05-21T03:33:50;4.53;;;3.90;;
68921;SDS011;55959;51.244;5.724;2023-05-21T03:36:16;6.17;;;4.57;;
68921;SDS011;55959;51.244;5.724;2023-05-21T03:38:42;4.73;;;4.27;;
68921;SDS011;55959;51.244;5.724;2023-05-21T03:41:08;4.80;;;4.40;;
68921;SDS011;55959;51.244;5.724;2023-05-21T03:43:34;4.93;;;4.50;;
68921;SDS011;55959;51.244;5.724;2023-05-21T03:46:00;4.87;;;4.47;;
68921;SDS011;55959;51.244;5.724;2023-05-21T03:48:26;4.20;;;3.80;;
68921;SDS011;55959;51.244;5.724;2023-05-21T03:50:52;4.20;;;3.90;;
68921;SDS011;55959;51.244;5.724;2023-05-21T03:53:18;4.77;;;4.37;;
68921;SDS011;55959;51.244;5.724;2023-05-21T03:55:43;5.03;;;4.63;;
68921;SDS011;55959;51.244;5.724;2023-05-21T03:58:09;4.93;;;4.47;;
68921;SDS011;55959;51.244;5.724;2023-05-21T04:00:35;4.50;;;3.83;;
68921;SDS011;55959;51.244;5.724;2023-05-21T04:03:02;4.40;;;4.00;;
68921;SDS011;55959;51.244;5.724;2023-05-21T04:05:28;5.07;;;4.57;;
68921;SDS011;55959;51.244;5.724;2023-05-21T04:07:54;4.83;;;4.40;;
68921;SDS011;55959;51.244;5.724;2023-05-21T04:10:20;4.47;;;3.73;;
68921;SDS011;55959;51.244;5.724;2023-05-21T04:12:47;4.83;;;4.43;;
68921;SDS011;55959;51.244;5.724;2023-05-21T04:15:16;4.53;;;4.13;;
68921;SDS011;55959;51.244;5.724;2023-05-21T04:17:45;4.57;;;4.17;;
68921;SDS011;55959;51.244;5.724;2023-05-21T04:20:11;5.47;;;3.93;;
68921;SDS011;55959;51.244;5.724;2023-05-21T04:22:40;4.70;;;4.30;;
68921;SDS011;55959;51.244;5.724;2023-05-21T04:25:07;4.67;;;4.23;;
68921;SDS011;55959;51.244;5.724;2023-05-21T04:27:33;4.67;;;4.13;;
68921;SDS011;55959;51.244;5.724;2023-05-21T04:30:01;4.40;;;4.00;;
68921;SDS011;55959;51.244;5.724;2023-05-21T04:32:28;4.87;;;3.70;;
68921;SDS011;55959;51.244;5.724;2023-05-21T04:34:59;4.60;;;4.20;;
68921;SDS011;55959;51.244;5.724;2023-05-21T04:37:25;4.30;;;3.90;;
68921;SDS011;55959;51.244;5.724;2023-05-21T04:39:52;5.00;;;4.53;;
68921;SDS011;55959;51.244;5.724;2023-05-21T04:42:19;4.63;;;4.23;;
68921;SDS011;55959;51.244;5.724;2023-05-21T04:44:48;4.50;;;4.10;;
68921;SDS011;55959;51.244;5.724;2023-05-21T04:47:14;4.37;;;3.97;;
68921;SDS011;55959;51.244;5.724;2023-05-21T04:49:43;4.70;;;4.30;;
68921;SDS011;55959;51.244;5.724;2023-05-21T04:52:10;4.87;;;4.37;;
68921;SDS011;55959;51.244;5.724;2023-05-21T04:54:37;4.93;;;4.50;;
68921;SDS011;55959;51.244;5.724;2023-05-21T04:57:06;4.97;;;4.47;;
68921;SDS011;55959;51.244;5.724;2023-05-21T04:59:32;5.30;;;4.80;;
68921;SDS011;55959;51.244;5.724;2023-05-21T05:01:59;5.23;;;4.50;;
68921;SDS011;55959;51.244;5.724;2023-05-21T05:04:24;5.27;;;4.77;;
68921;SDS011;55959;51.244;5.724;2023-05-21T05:06:50;6.27;;;5.17;;
68921;SDS011;55959;51.244;5.724;2023-05-21T05:09:16;5.40;;;4.90;;
68921;SDS011;55959;51.244;5.724;2023-05-21T05:11:43;4.93;;;4.43;;
68921;SDS011;55959;51.244;5.724;2023-05-21T05:14:08;5.77;;;4.97;;
68921;SDS011;55959;51.244;5.724;2023-05-21T05:16:34;5.10;;;4.60;;
68921;SDS011;55959;51.244;5.724;2023-05-21T05:19:00;5.07;;;4.67;;
68921;SDS011;55959;51.244;5.724;2023-05-21T05:21:26;5.60;;;5.10;;
68921;SDS011;55959;51.244;5.724;2023-05-21T05:23:51;5.13;;;4.50;;
68921;SDS011;55959;51.244;5.724;2023-05-21T05:26:17;6.07;;;4.50;;
68921;SDS011;55959;51.244;5.724;2023-05-21T05:28:43;4.70;;;4.30;;
68921;SDS011;55959;51.244;5.724;2023-05-21T05:31:10;5.67;;;5.17;;
68921;SDS011;55959;51.244;5.724;2023-05-21T05:33:36;4.97;;;4.47;;
68921;SDS011;55959;51.244;5.724;2023-05-21T05:36:01;4.63;;;4.23;;
68921;SDS011;55959;51.244;5.724;2023-05-21T05:38:27;6.50;;;4.23;;
68921;SDS011;55959;51.244;5.724;2023-05-21T05:40:53;6.07;;;5.30;;
68921;SDS011;55959;51.244;5.724;2023-05-21T05:43:19;5.57;;;5.07;;
68921;SDS011;55959;51.244;5.724;2023-05-21T05:45:45;5.57;;;5.10;;
68921;SDS011;55959;51.244;5.724;2023-05-21T05:48:10;6.07;;;5.53;;
68921;SDS011;55959;51.244;5.724;2023-05-21T05:50:37;5.17;;;4.73;;
68921;SDS011;55959;51.244;5.724;2023-05-21T05:53:02;5.70;;;5.13;;
68921;SDS011;55959;51.244;5.724;2023-05-21T05:55:28;7.17;;;6.43;;
68921;SDS011;55959;51.244;5.724;2023-05-21T05:57:54;5.90;;;5.40;;
68921;SDS011;55959;51.244;5.724;2023-05-21T06:00:19;6.73;;;6.07;;
68921;SDS011;55959;51.244;5.724;2023-05-21T06:02:46;6.67;;;5.80;;
68921;SDS011;55959;51.244;5.724;2023-05-21T06:05:12;6.03;;;5.50;;
68921;SDS011;55959;51.244;5.724;2023-05-21T06:07:38;5.67;;;5.17;;
68921;SDS011;55959;51.244;5.724;2023-05-21T06:10:05;6.27;;;5.77;;
68921;SDS011;55959;51.244;5.724;2023-05-21T06:12:32;6.27;;;5.67;;
68921;SDS011;55959;51.244;5.724;2023-05-21T06:14:58;5.73;;;5.17;;
68921;SDS011;55959;51.244;5.724;2023-05-21T06:17:24;6.23;;;5.63;;
68921;SDS011;55959;51.244;5.724;2023-05-21T06:19:50;5.97;;;5.38;;
68921;SDS011;55959;51.244;5.724;2023-05-21T06:22:15;6.50;;;6.00;;
68921;SDS011;55959;51.244;5.724;2023-05-21T06:24:42;6.57;;;5.97;;
68921;SDS011;55959;51.244;5.724;2023-05-21T06:27:08;6.17;;;5.60;;
68921;SDS011;55959;51.244;5.724;2023-05-21T06:29:34;6.40;;;5.87;;
68921;SDS011;55959;51.244;5.724;2023-05-21T06:31:59;6.50;;;6.00;;
68921;SDS011;55959;51.244;5.724;2023-05-21T06:34:25;5.87;;;5.37;;
68921;SDS011;55959;51.244;5.724;2023-05-21T06:36:52;6.60;;;6.00;;
68921;SDS011;55959;51.244;5.724;2023-05-21T06:39:18;5.93;;;5.43;;
68921;SDS011;55959;51.244;5.724;2023-05-21T06:41:44;5.50;;;5.00;;
68921;SDS011;55959;51.244;5.724;2023-05-21T06:44:10;6.25;;;5.75;;
68921;SDS011;55959;51.244;5.724;2023-05-21T06:46:36;6.60;;;6.00;;
68921;SDS011;55959;51.244;5.724;2023-05-21T06:49:02;5.63;;;5.13;;
68921;SDS011;55959;51.244;5.724;2023-05-21T06:51:30;5.78;;;5.28;;
68921;SDS011;55959;51.244;5.724;2023-05-21T06:53:56;6.28;;;5.78;;
68921;SDS011;55959;51.244;5.724;2023-05-21T06:56:22;5.80;;;5.28;;
68921;SDS011;55959;51.244;5.724;2023-05-21T06:58:48;6.60;;;5.90;;
68921;SDS011;55959;51.244;5.724;2023-05-21T07:01:13;5.72;;;5.22;;
68921;SDS011;55959;51.244;5.724;2023-05-21T07:03:40;6.70;;;6.10;;
68921;SDS011;55959;51.244;5.724;2023-05-21T07:06:06;6.07;;;5.50;;
68921;SDS011;55959;51.244;5.724;2023-05-21T07:08:32;5.57;;;5.10;;
68921;SDS011;55959;51.244;5.724;2023-05-21T07:10:57;6.90;;;6.20;;
68921;SDS011;55959;51.244;5.724;2023-05-21T07:13:24;6.15;;;5.65;;
68921;SDS011;55959;51.244;5.724;2023-05-21T07:15:50;6.85;;;6.15;;
68921;SDS011;55959;51.244;5.724;2023-05-21T07:18:16;6.57;;;5.88;;
68921;SDS011;55959;51.244;5.724;2023-05-21T07:20:42;7.88;;;7.18;;
68921;SDS011;55959;51.244;5.724;2023-05-21T07:23:08;7.25;;;6.55;;
68921;SDS011;55959;51.244;5.724;2023-05-21T07:25:34;6.30;;;5.70;;
68921;SDS011;55959;51.244;5.724;2023-05-21T07:28:00;6.55;;;5.93;;
68921;SDS011;55959;51.244;5.724;2023-05-21T07:30:26;7.22;;;6.53;;
68921;SDS011;55959;51.244;5.724;2023-05-21T07:32:51;6.20;;;5.70;;
68921;SDS011;55959;51.244;5.724;2023-05-21T07:35:17;7.30;;;6.70;;
68921;SDS011;55959;51.244;5.724;2023-05-21T07:37:44;6.03;;;5.53;;
68921;SDS011;55959;51.244;5.724;2023-05-21T07:40:10;6.95;;;6.25;;
68921;SDS011;55959;51.244;5.724;2023-05-21T07:42:37;6.70;;;6.10;;
68921;SDS011;55959;51.244;5.724;2023-05-21T07:45:03;6.63;;;5.88;;
68921;SDS011;55959;51.244;5.724;2023-05-21T07:47:29;8.18;;;7.38;;
68921;SDS011;55959;51.244;5.724;2023-05-21T07:49:55;7.93;;;7.22;;
68921;SDS011;55959;51.244;5.724;2023-05-21T07:52:22;6.78;;;6.22;;
68921;SDS011;55959;51.244;5.724;2023-05-21T07:54:48;6.93;;;6.22;;
68921;SDS011;55959;51.244;5.724;2023-05-21T07:57:14;7.32;;;6.45;;
68921;SDS011;55959;51.244;5.724;2023-05-21T07:59:40;5.50;;;5.10;;
68921;SDS011;55959;51.244;5.724;2023-05-21T08:02:06;6.13;;;5.63;;
68921;SDS011;55959;51.244;5.724;2023-05-21T08:04:32;6.75;;;6.15;;
68921;SDS011;55959;51.244;5.724;2023-05-21T08:06:57;6.43;;;5.82;;
68921;SDS011;55959;51.244;5.724;2023-05-21T08:09:24;5.95;;;5.45;;
68921;SDS011;55959;51.244;5.724;2023-05-21T08:11:50;7.43;;;6.60;;
68921;SDS011;55959;51.244;5.724;2023-05-21T08:14:16;6.32;;;5.72;;
68921;SDS011;55959;51.244;5.724;2023-05-21T08:16:41;6.80;;;6.20;;
68921;SDS011;55959;51.244;5.724;2023-05-21T08:19:08;9.57;;;8.57;;
68921;SDS011;55959;51.244;5.724;2023-05-21T08:21:34;7.15;;;6.45;;
68921;SDS011;55959;51.244;5.724;2023-05-21T08:24:00;7.68;;;6.97;;
68921;SDS011;55959;51.244;5.724;2023-05-21T08:26:26;7.40;;;6.80;;
68921;SDS011;55959;51.244;5.724;2023-05-21T08:28:52;8.18;;;7.40;;
68921;SDS011;55959;51.244;5.724;2023-05-21T08:31:18;6.85;;;6.18;;
68921;SDS011;55959;51.244;5.724;2023-05-21T08:33:53;7.15;;;6.45;;
68921;SDS011;55959;51.244;5.724;2023-05-21T08:36:20;7.20;;;6.63;;
68921;SDS011;55959;51.244;5.724;2023-05-21T08:38:46;6.90;;;6.07;;
68921;SDS011;55959;51.244;5.724;2023-05-21T08:41:12;7.65;;;6.95;;
68921;SDS011;55959;51.244;5.724;2023-05-21T08:43:39;8.60;;;7.78;;
68921;SDS011;55959;51.244;5.724;2023-05-21T08:46:06;9.40;;;8.50;;
68921;SDS011;55959;51.244;5.724;2023-05-21T08:48:36;7.82;;;7.05;;
68921;SDS011;55959;51.244;5.724;2023-05-21T08:51:03;7.93;;;7.22;;
68921;SDS011;55959;51.244;5.724;2023-05-21T08:53:29;8.48;;;7.68;;
68921;SDS011;55959;51.244;5.724;2023-05-21T08:55:57;9.38;;;7.18;;
68921;SDS011;55959;51.244;5.724;2023-05-21T08:58:23;10.27;;;8.70;;
68921;SDS011;55959;51.244;5.724;2023-05-21T09:00:49;8.77;;;7.95;;
68921;SDS011;55959;51.244;5.724;2023-05-21T09:03:15;9.27;;;8.48;;
68921;SDS011;55959;51.244;5.724;2023-05-21T09:05:42;9.32;;;8.52;;
68921;SDS011;55959;51.244;5.724;2023-05-21T09:08:28;8.05;;;6.57;;
68921;SDS011;55959;51.244;5.724;2023-05-21T09:10:57;8.32;;;7.53;;
68921;SDS011;55959;51.244;5.724;2023-05-21T09:13:23;9.23;;;8.43;;
68921;SDS011;55959;51.244;5.724;2023-05-21T09:15:50;8.00;;;7.30;;
68921;SDS011;55959;51.244;5.724;2023-05-21T09:18:16;9.40;;;8.40;;
68921;SDS011;55959;51.244;5.724;2023-05-21T09:20:42;10.13;;;9.23;;
68921;SDS011;55959;51.244;5.724;2023-05-21T09:23:09;9.52;;;8.73;;
68921;SDS011;55959;51.244;5.724;2023-05-21T09:25:40;8.48;;;7.68;;
68921;SDS011;55959;51.244;5.724;2023-05-21T09:28:10;8.65;;;7.90;;
68921;SDS011;55959;51.244;5.724;2023-05-21T09:30:42;7.72;;;7.03;;
68921;SDS011;55959;51.244;5.724;2023-05-21T09:33:09;9.30;;;8.50;;
68921;SDS011;55959;51.244;5.724;2023-05-21T09:35:36;11.52;;;10.52;;
68921;SDS011;55959;51.244;5.724;2023-05-21T09:38:02;10.80;;;8.82;;
68921;SDS011;55959;51.244;5.724;2023-05-21T09:40:33;8.57;;;7.78;;
68921;SDS011;55959;51.244;5.724;2023-05-21T09:42:59;9.93;;;8.93;;
68921;SDS011;55959;51.244;5.724;2023-05-21T09:45:25;10.20;;;9.30;;
68921;SDS011;55959;51.244;5.724;2023-05-21T09:47:53;9.73;;;8.93;;
68921;SDS011;55959;51.244;5.724;2023-05-21T09:50:21;9.23;;;8.43;;
68921;SDS011;55959;51.244;5.724;2023-05-21T09:52:50;10.55;;;9.55;;
68921;SDS011;55959;51.244;5.724;2023-05-21T09:55:23;9.63;;;8.57;;
68921;SDS011;55959;51.244;5.724;2023-05-21T09:57:50;9.85;;;9.05;;
68921;SDS011;55959;51.244;5.724;2023-05-21T10:00:24;9.00;;;8.15;;
68921;SDS011;55959;51.244;5.724;2023-05-21T10:02:53;7.30;;;6.70;;
68921;SDS011;55959;51.244;5.724;2023-05-21T10:05:20;10.00;;;9.10;;
68921;SDS011;55959;51.244;5.724;2023-05-21T10:07:51;10.65;;;9.75;;
68921;SDS011;55959;51.244;5.724;2023-05-21T10:10:22;10.93;;;9.73;;
68921;SDS011;55959;51.244;5.724;2023-05-21T10:12:50;10.55;;;9.65;;
68921;SDS011;55959;51.244;5.724;2023-05-21T10:15:30;11.23;;;9.95;;
68921;SDS011;55959;51.244;5.724;2023-05-21T10:18:11;11.40;;;10.30;;
68921;SDS011;55959;51.244;5.724;2023-05-21T10:20:37;10.77;;;9.77;;
68921;SDS011;55959;51.244;5.724;2023-05-21T10:23:04;11.25;;;10.27;;
68921;SDS011;55959;51.244;5.724;2023-05-21T10:25:30;11.50;;;10.50;;
68921;SDS011;55959;51.244;5.724;2023-05-21T10:27:57;10.35;;;9.35;;
68921;SDS011;55959;51.244;5.724;2023-05-21T10:30:23;10.82;;;9.77;;
68921;SDS011;55959;51.244;5.724;2023-05-21T10:32:49;10.02;;;9.20;;
68921;SDS011;55959;51.244;5.724;2023-05-21T10:35:16;11.68;;;10.30;;
68921;SDS011;55959;51.244;5.724;2023-05-21T10:37:42;10.90;;;9.82;;
68921;SDS011;55959;51.244;5.724;2023-05-21T10:40:10;9.32;;;8.52;;
68921;SDS011;55959;51.244;5.724;2023-05-21T10:43:01;11.23;;;9.68;;
68921;SDS011;55959;51.244;5.724;2023-05-21T10:46:09;8.95;;;8.15;;
68921;SDS011;55959;51.244;5.724;2023-05-21T10:58:19;9.20;;;8.40;;
68921;SDS011;55959;51.244;5.724;2023-05-21T11:01:11;9.63;;;8.77;;
68921;SDS011;55959;51.244;5.724;2023-05-21T11:03:37;12.68;;;11.57;;
68921;SDS011;55959;51.244;5.724;2023-05-21T11:06:03;12.60;;;11.50;;
68921;SDS011;55959;51.244;5.724;2023-05-21T11:08:30;11.70;;;10.65;;
68921;SDS011;55959;51.244;5.724;2023-05-21T11:10:59;12.45;;;11.27;;
68921;SDS011;55959;51.244;5.724;2023-05-21T11:13:27;11.25;;;10.20;;
68921;SDS011;55959;51.244;5.724;2023-05-21T11:16:13;13.57;;;12.32;;
68921;SDS011;55959;51.244;5.724;2023-05-21T11:21:06;10.80;;;9.90;;
68921;SDS011;55959;51.244;5.724;2023-05-21T11:26:22;12.48;;;11.23;;
68921;SDS011;55959;51.244;5.724;2023-05-21T11:31:30;11.88;;;10.73;;
68921;SDS011;55959;51.244;5.724;2023-05-21T11:36:52;11.15;;;10.07;;
68921;SDS011;55959;51.244;5.724;2023-05-21T11:39:54;12.40;;;11.05;;
68921;SDS011;55959;51.244;5.724;2023-05-21T11:42:32;12.30;;;11.05;;
68921;SDS011;55959;51.244;5.724;2023-05-21T11:45:02;11.07;;;10.18;;
68921;SDS011;55959;51.244;5.724;2023-05-21T11:47:28;13.20;;;11.90;;
68921;SDS011;55959;51.244;5.724;2023-05-21T11:49:57;11.25;;;10.15;;
68921;SDS011;55959;51.244;5.724;2023-05-21T11:52:27;12.90;;;11.70;;
68921;SDS011;55959;51.244;5.724;2023-05-21T11:54:57;12.20;;;11.00;;
68921;SDS011;55959;51.244;5.724;2023-05-21T11:57:27;9.90;;;9.05;;
68921;SDS011;55959;51.244;5.724;2023-05-21T11:59:57;12.32;;;11.23;;
68921;SDS011;55959;51.244;5.724;2023-05-21T12:02:25;12.27;;;11.00;;
68921;SDS011;55959;51.244;5.724;2023-05-21T12:04:56;12.60;;;11.48;;
68921;SDS011;55959;51.244;5.724;2023-05-21T12:07:25;12.98;;;11.68;;
68921;SDS011;55959;51.244;5.724;2023-05-21T12:09:53;11.77;;;10.77;;
68921;SDS011;55959;51.244;5.724;2023-05-21T12:12:20;10.85;;;9.93;;
68921;SDS011;55959;51.244;5.724;2023-05-21T12:14:48;12.15;;;11.05;;
68921;SDS011;55959;51.244;5.724;2023-05-21T12:17:16;12.27;;;11.07;;
68921;SDS011;55959;51.244;5.724;2023-05-21T12:19:55;12.70;;;11.50;;
68921;SDS011;55959;51.244;5.724;2023-05-21T12:22:22;13.45;;;11.50;;
68921;SDS011;55959;51.244;5.724;2023-05-21T12:24:49;11.32;;;10.20;;
68921;SDS011;55959;51.244;5.724;2023-05-21T12:27:15;12.43;;;11.32;;
68921;SDS011;55959;51.244;5.724;2023-05-21T12:29:43;12.73;;;11.55;;
68921;SDS011;55959;51.244;5.724;2023-05-21T12:32:12;12.88;;;11.68;;
68921;SDS011;55959;51.244;5.724;2023-05-21T12:37:17;13.35;;;12.05;;
68921;SDS011;55959;51.244;5.724;2023-05-21T12:39:50;12.85;;;11.65;;
68921;SDS011;55959;51.244;5.724;2023-05-21T12:42:27;10.43;;;9.40;;
68921;SDS011;55959;51.244;5.724;2023-05-21T12:44:58;13.90;;;12.60;;
68921;SDS011;55959;51.244;5.724;2023-05-21T12:47:25;12.98;;;11.68;;
68921;SDS011;55959;51.244;5.724;2023-05-21T12:49:58;11.80;;;10.82;;
68921;SDS011;55959;51.244;5.724;2023-05-21T12:52:26;11.18;;;10.15;;
68921;SDS011;55959;51.244;5.724;2023-05-21T12:54:52;14.13;;;11.50;;
68921;SDS011;55959;51.244;5.724;2023-05-21T12:57:24;12.45;;;11.25;;
68921;SDS011;55959;51.244;5.724;2023-05-21T12:59:55;9.27;;;8.38;;
68921;SDS011;55959;51.244;5.724;2023-05-21T13:05:07;11.30;;;10.27;;
68921;SDS011;55959;51.244;5.724;2023-05-21T13:07:35;10.38;;;9.48;;
68921;SDS011;55959;51.244;5.724;2023-05-21T13:10:04;11.07;;;10.07;;
68921;SDS011;55959;51.244;5.724;2023-05-21T13:12:32;10.90;;;9.90;;
68921;SDS011;55959;51.244;5.724;2023-05-21T13:14:59;11.60;;;10.50;;
68921;SDS011;55959;51.244;5.724;2023-05-21T13:17:27;11.32;;;10.32;;
68921;SDS011;55959;51.244;5.724;2023-05-21T13:20:03;12.70;;;11.50;;
68921;SDS011;55959;51.244;5.724;2023-05-21T13:22:50;10.88;;;9.88;;
68921;SDS011;55959;51.244;5.724;2023-05-21T13:25:16;10.85;;;9.85;;
68921;SDS011;55959;51.244;5.724;2023-05-21T13:27:49;11.93;;;10.82;;
68921;SDS011;55959;51.244;5.724;2023-05-21T13:30:16;11.18;;;10.18;;
68921;SDS011;55959;51.244;5.724;2023-05-21T13:32:43;11.20;;;10.13;;
68921;SDS011;55959;51.244;5.724;2023-05-21T13:35:09;12.65;;;11.38;;
68921;SDS011;55959;51.244;5.724;2023-05-21T13:37:36;12.15;;;10.95;;
68921;SDS011;55959;51.244;5.724;2023-05-21T13:40:04;10.73;;;9.73;;
68921;SDS011;55959;51.244;5.724;2023-05-21T13:42:32;12.45;;;11.32;;
68921;SDS011;55959;51.244;5.724;2023-05-21T13:44:59;11.15;;;10.15;;
68921;SDS011;55959;51.244;5.724;2023-05-21T13:47:25;11.95;;;10.85;;
68921;SDS011;55959;51.244;5.724;2023-05-21T13:49:51;11.02;;;10.10;;
68921;SDS011;55959;51.244;5.724;2023-05-21T13:52:17;10.43;;;9.52;;
68921;SDS011;55959;51.244;5.724;2023-05-21T13:54:43;12.50;;;11.35;;
68921;SDS011;55959;51.244;5.724;2023-05-21T13:57:09;10.95;;;9.82;;
68921;SDS011;55959;51.244;5.724;2023-05-21T13:59:35;13.20;;;12.00;;
68921;SDS011;55959;51.244;5.724;2023-05-21T14:02:01;9.77;;;8.98;;
68921;SDS011;55959;51.244;5.724;2023-05-21T14:04:26;12.32;;;11.32;;
68921;SDS011;55959;51.244;5.724;2023-05-21T14:06:52;12.50;;;11.40;;
68921;SDS011;55959;51.244;5.724;2023-05-21T14:09:18;11.10;;;10.00;;
68921;SDS011;55959;51.244;5.724;2023-05-21T14:11:45;11.52;;;10.43;;
68921;SDS011;55959;51.244;5.724;2023-05-21T14:14:11;11.43;;;10.43;;
68921;SDS011;55959;51.244;5.724;2023-05-21T14:16:44;13.32;;;12.13;;
68921;SDS011;55959;51.244;5.724;2023-05-21T14:19:13;11.50;;;10.40;;
68921;SDS011;55959;51.244;5.724;2023-05-21T14:21:40;12.27;;;11.10;;
68921;SDS011;55959;51.244;5.724;2023-05-21T14:24:06;11.02;;;9.93;;
68921;SDS011;55959;51.244;5.724;2023-05-21T14:26:32;10.85;;;9.85;;
68921;SDS011;55959;51.244;5.724;2023-05-21T14:28:58;12.38;;;11.27;;
68921;SDS011;55959;51.244;5.724;2023-05-21T14:31:23;11.77;;;10.77;;
68921;SDS011;55959;51.244;5.724;2023-05-21T14:33:50;12.05;;;10.85;;
68921;SDS011;55959;51.244;5.724;2023-05-21T14:36:16;10.52;;;9.52;;
68921;SDS011;55959;51.244;5.724;2023-05-21T14:38:41;11.10;;;10.00;;
68921;SDS011;55959;51.244;5.724;2023-05-21T14:41:07;12.85;;;11.65;;
68921;SDS011;55959;51.244;5.724;2023-05-21T14:43:33;12.80;;;11.60;;
68921;SDS011;55959;51.244;5.724;2023-05-21T14:46:00;13.98;;;12.73;;
68921;SDS011;55959;51.244;5.724;2023-05-21T14:48:26;12.98;;;11.77;;
68921;SDS011;55959;51.244;5.724;2023-05-21T14:50:52;10.85;;;9.75;;
68921;SDS011;55959;51.244;5.724;2023-05-21T14:53:18;12.77;;;11.68;;
68921;SDS011;55959;51.244;5.724;2023-05-21T14:55:44;13.95;;;12.60;;
68921;SDS011;55959;51.244;5.724;2023-05-21T14:58:10;11.20;;;10.23;;
68921;SDS011;55959;51.244;5.724;2023-05-21T15:00:36;11.80;;;10.70;;
68921;SDS011;55959;51.244;5.724;2023-05-21T15:03:02;12.73;;;11.52;;
68921;SDS011;55959;51.244;5.724;2023-05-21T15:05:29;10.88;;;9.98;;
68921;SDS011;55959;51.244;5.724;2023-05-21T15:07:55;11.75;;;10.65;;
68921;SDS011;55959;51.244;5.724;2023-05-21T15:10:22;12.40;;;11.27;;
68921;SDS011;55959;51.244;5.724;2023-05-21T15:12:49;10.82;;;9.82;;